15:20
Airports
Links
Donate
Help keep this website running!
PayPal
Bitcoin
METAR
CYTE 191500Z 26003KT 15SM BKN050 M24/M27 A2986 RMK SC7 SLP120
Current Weather Conditions at CYTE
VFR 15:00:00 19-01-18
Altimeter:29.86 hg
Temp:-24.0°c -11°f
Dew point:-27.0°c -17°f
Wind:3 knots, 3.5 mph, 2 m/s, from 260°
Visibility:15.0 statute miles
5000(BKN) Broken
Past METAR reports
VFR 14:30:00 19-01-18
Altimeter:29.85 hg
Temp:-24.0°c -11°f
Dew point:-27.0°c -17°f
Wind:2 knots, 2.3 mph, 1 m/s, from 260°
Visibility:15.0 statute miles
5000(BKN) Broken
1000(FEW) A few
CYTE 191430Z 26002KT 15SM FEW010 BKN050 M24/M27 A2985 RMK SC1SC6 SLP119
VFR 14:00:00 19-01-18
Altimeter:29.85 hg
Temp:-25.0°c -13°f
Dew point:-27.0°c -17°f
Wind:3 knots, 3.5 mph, 2 m/s, from 290°
Visibility:15.0 statute miles
5000(BKN) Broken
1000(FEW) A few
CYTE 191400Z 29003KT 15SM -SN FEW010 BKN050 M25/M27 A2985 RMK SC1SC6 SLP117
VFR 13:18:00 19-01-18
Altimeter:29.85 hg
Temp:-25.0°c -13°f
Dew point:-27.0°c -17°f
Wind:0 knots, 0 mph, 0 m/s,
Variable direction
Visibility:15.0 statute miles
5000(BKN) Broken
1000(SCT) Scattered
CYTE 191318Z 00000KT 15SM -SN SCT010 BKN050 M25/M27 A2985 RMK SC4SC3 SLP118
MVFR 13:00:00 19-01-18
Altimeter:29.86 hg
Temp:-24.0°c -11°f
Dew point:-27.0°c -17°f
Wind:0 knots, 0 mph, 0 m/s,
Variable direction
Visibility:15.0 statute miles
5000(OVC) Overcast
1000(BKN) Broken
CYTE 191300Z 00000KT 15SM -SN BKN010 OVC050 M24/M27 A2986 RMK SC5SC3 SLP120
MVFR 12:44:00 19-01-18
Altimeter:29.86 hg
Temp:-25.0°c -13°f
Dew point:-27.0°c -17°f
Wind:2 knots, 2.3 mph, 1 m/s, from 290°
Visibility:15.0 statute miles
5000(OVC) Overcast
1000(BKN) Broken
CYTE 191244Z 29002KT 15SM -SN BKN010 OVC050 M25/M27 A2986 RMK SC5SC3 SLP120
VFR 12:00:00 19-01-18
Altimeter:29.86 hg
Temp:-25.0°c -13°f
Dew point:-27.0°c -17°f
Wind:0 knots, 0 mph, 0 m/s,
Variable direction
Visibility:15.0 statute miles
5000(OVC) Overcast
1200(FEW) A few
CYTE 191200Z 00000KT 15SM -SN FEW012 OVC050 M25/M27 A2986 RMK SC2SC6 -24.9/-26.8/0.4/16 SNW CVR/TRACE LOOSE SLP120
TAF
TAF CYTE 191238Z 1913/2001 36005KT P6SM OVC050 TEMPO 1913/2001 5SM -SN BKN015 OVC050 RMK FCST BASED ON AUTO OBS. NXT FCST BY 191900Z
Forecast at CYTE
13:00 19-01-18 to 01:00 20-01-18
Wind:5 Knots from 360°
Visibility:6.21 statute miles
5000OVC Overcast
TEMPO 13:00 19-01-18 to 01:00 20-01-18
-SN
Visibility:5.0 statute miles
1500BKN Broken
5000OVC Overcast